createdAt,value
2023-05-21T00:00:25.113Z,0.00
2023-05-21T00:01:25.092Z,0.00
2023-05-21T00:02:25.144Z,0.00
2023-05-21T00:03:25.197Z,0.00
2023-05-21T00:04:25.093Z,0.00
2023-05-21T00:05:25.102Z,0.00
2023-05-21T00:06:25.138Z,0.00
2023-05-21T00:07:25.098Z,0.00
2023-05-21T00:08:25.088Z,0.00
2023-05-21T00:09:25.110Z,0.00
2023-05-21T00:10:25.092Z,0.00
2023-05-21T00:11:25.081Z,0.00
2023-05-21T00:12:25.094Z,0.00
2023-05-21T00:13:25.123Z,0.00
2023-05-21T00:14:25.098Z,0.00
2023-05-21T00:15:25.076Z,0.00
2023-05-21T00:16:25.112Z,0.00
2023-05-21T00:17:25.111Z,0.00
2023-05-21T00:18:25.084Z,0.00
2023-05-21T00:19:25.183Z,0.00
2023-05-21T00:20:25.072Z,0.00
2023-05-21T00:21:25.075Z,0.00
2023-05-21T00:22:25.091Z,0.00
2023-05-21T00:23:25.069Z,0.00
2023-05-21T00:24:25.070Z,0.00
2023-05-21T00:25:25.079Z,0.00
2023-05-21T00:26:25.076Z,0.00
2023-05-21T00:27:25.055Z,0.00
2023-05-21T00:28:25.060Z,0.00
2023-05-21T00:29:25.057Z,0.00
2023-05-21T00:30:25.069Z,0.00
2023-05-21T00:31:25.108Z,0.00
2023-05-21T00:32:25.076Z,0.00
2023-05-21T00:33:25.046Z,0.00
2023-05-21T00:34:25.055Z,0.00
2023-05-21T00:35:25.071Z,0.00
2023-05-21T00:36:25.069Z,0.00
2023-05-21T00:37:25.043Z,0.00
2023-05-21T00:38:25.053Z,0.00
2023-05-21T00:39:25.054Z,0.00
2023-05-21T00:40:25.045Z,0.00
2023-05-21T00:41:25.041Z,0.00
2023-05-21T00:42:25.038Z,0.00
2023-05-21T00:43:25.046Z,0.00
2023-05-21T00:44:25.032Z,0.00
2023-05-21T00:45:25.035Z,0.00
2023-05-21T00:46:25.122Z,0.00
2023-05-21T00:47:25.056Z,0.00
2023-05-21T00:48:25.045Z,0.00
2023-05-21T00:49:25.061Z,0.00
2023-05-21T00:50:25.024Z,0.00
2023-05-21T00:51:25.032Z,0.00
2023-05-21T00:52:25.022Z,0.00
2023-05-21T00:53:25.031Z,0.00
2023-05-21T00:54:25.021Z,0.00
2023-05-21T00:55:25.022Z,0.00
2023-05-21T00:56:25.042Z,0.00
2023-05-21T00:57:25.522Z,0.00
2023-05-21T00:58:25.021Z,0.00
2023-05-21T00:59:25.022Z,0.00
2023-05-21T01:00:25.015Z,0.00
2023-05-21T01:01:25.032Z,0.00
2023-05-21T01:02:25.055Z,0.00
2023-05-21T01:03:25.167Z,0.00
2023-05-21T01:04:25.012Z,0.00
2023-05-21T01:05:25.014Z,0.00
2023-05-21T01:06:25.006Z,0.00
2023-05-21T01:07:25.008Z,0.00
2023-05-21T01:08:25.004Z,0.00
2023-05-21T01:09:24.995Z,0.00
2023-05-21T01:10:25.008Z,0.00
2023-05-21T01:11:25.011Z,0.00
2023-05-21T01:12:24.995Z,0.00
2023-05-21T01:13:25.000Z,0.00
2023-05-21T01:14:25.025Z,0.00
2023-05-21T01:15:24.989Z,0.00
2023-05-21T01:16:25.030Z,0.00
2023-05-21T01:17:25.009Z,0.00
2023-05-21T01:18:25.003Z,0.00
2023-05-21T01:19:25.042Z,0.00
2023-05-21T01:20:24.993Z,0.00
2023-05-21T01:21:25.008Z,0.00
2023-05-21T01:22:25.169Z,0.00
2023-05-21T01:23:25.028Z,0.00
2023-05-21T01:24:24.991Z,0.00
2023-05-21T01:25:25.009Z,0.00
2023-05-21T01:26:24.978Z,0.00
2023-05-21T01:27:25.040Z,0.00
2023-05-21T01:28:24.969Z,0.00
2023-05-21T01:29:24.973Z,0.00
2023-05-21T01:30:24.963Z,0.00
2023-05-21T01:31:24.968Z,0.00
2023-05-21T01:32:24.973Z,0.00
2023-05-21T01:33:25.050Z,0.00
2023-05-21T01:34:24.981Z,0.00
2023-05-21T01:35:24.986Z,0.00
2023-05-21T01:36:24.955Z,0.00
2023-05-21T01:37:24.967Z,0.00
2023-05-21T01:38:24.960Z,0.00
2023-05-21T01:39:24.953Z,0.00
2023-05-21T01:40:24.955Z,0.00
2023-05-21T01:41:24.946Z,0.00
2023-05-21T01:42:24.960Z,0.00
2023-05-21T01:43:24.947Z,0.00
2023-05-21T01:44:24.943Z,0.00
2023-05-21T01:45:24.954Z,0.00
2023-05-21T01:46:24.995Z,0.00
2023-05-21T01:47:24.990Z,0.00
2023-05-21T01:48:24.954Z,0.00
2023-05-21T01:49:24.957Z,0.00
2023-05-21T01:50:24.975Z,0.00
2023-05-21T01:51:24.932Z,0.00
2023-05-21T01:52:24.931Z,0.00
2023-05-21T01:53:24.932Z,0.00
2023-05-21T01:54:24.934Z,0.00
2023-05-21T01:55:25.102Z,0.00
2023-05-21T01:56:24.926Z,0.00
2023-05-21T01:57:24.923Z,0.00
2023-05-21T01:58:24.934Z,0.00
2023-05-21T01:59:24.921Z,0.00
2023-05-21T02:00:24.927Z,0.00
2023-05-21T02:01:24.965Z,0.00
2023-05-21T02:02:24.962Z,0.00
2023-05-21T02:03:25.053Z,0.00
2023-05-21T02:04:24.909Z,0.00
2023-05-21T02:05:24.917Z,0.00
2023-05-21T02:06:24.906Z,0.00
2023-05-21T02:07:24.916Z,0.00
2023-05-21T02:08:24.909Z,0.00
2023-05-21T02:09:24.909Z,0.00
2023-05-21T02:10:24.919Z,0.00
2023-05-21T02:11:24.904Z,0.00
2023-05-21T02:12:24.904Z,0.00
2023-05-21T02:13:26.513Z,0.00
2023-05-21T02:14:24.930Z,0.00
2023-05-21T02:15:24.914Z,0.00
2023-05-21T02:16:24.963Z,0.00
2023-05-21T02:17:24.927Z,0.00
2023-05-21T02:18:24.895Z,0.00
2023-05-21T02:19:24.968Z,0.00
2023-05-21T02:20:24.894Z,0.00
2023-05-21T02:21:24.892Z,0.00
2023-05-21T02:22:24.893Z,0.00
2023-05-21T02:23:24.898Z,0.00
2023-05-21T02:24:24.880Z,0.00
2023-05-21T02:25:24.913Z,0.00
2023-05-21T02:26:24.874Z,0.00
2023-05-21T02:27:24.879Z,0.00
2023-05-21T02:28:24.894Z,0.00
2023-05-21T02:29:24.878Z,0.00
2023-05-21T02:30:24.879Z,0.00
2023-05-21T02:31:24.880Z,0.00
2023-05-21T02:32:24.956Z,0.00
2023-05-21T02:33:24.876Z,0.00
2023-05-21T02:34:25.026Z,0.00
2023-05-21T02:35:24.870Z,0.00
2023-05-21T02:36:24.865Z,0.00
2023-05-21T02:37:24.860Z,0.00
2023-05-21T02:38:24.863Z,0.00
2023-05-21T02:39:24.869Z,0.00
2023-05-21T02:40:24.856Z,0.00
2023-05-21T02:41:24.861Z,0.00
2023-05-21T02:42:24.852Z,0.00
2023-05-21T02:43:24.855Z,0.00
2023-05-21T02:44:24.849Z,0.00
2023-05-21T02:45:24.874Z,0.00
2023-05-21T02:46:24.981Z,0.00
2023-05-21T02:47:24.915Z,0.00
2023-05-21T02:48:24.852Z,0.00
2023-05-21T02:49:24.848Z,0.00
2023-05-21T02:50:24.829Z,0.00
2023-05-21T02:51:24.838Z,0.00
2023-05-21T02:52:24.832Z,0.00
2023-05-21T02:53:24.832Z,0.00
2023-05-21T02:54:24.832Z,0.00
2023-05-21T02:55:24.828Z,0.00
2023-05-21T02:56:24.826Z,0.00
2023-05-21T02:57:24.830Z,0.00
2023-05-21T02:58:24.826Z,0.00
2023-05-21T02:59:24.828Z,0.00
2023-05-21T03:00:24.814Z,0.00
2023-05-21T03:01:24.840Z,0.00
2023-05-21T03:02:24.926Z,0.00
2023-05-21T03:03:24.929Z,0.00
2023-05-21T03:04:24.813Z,0.00
2023-05-21T03:05:24.839Z,0.00
2023-05-21T03:06:24.802Z,0.00
2023-05-21T03:07:24.824Z,0.00
2023-05-21T03:08:24.796Z,0.00
2023-05-21T03:09:24.821Z,0.00
2023-05-21T03:10:24.803Z,0.00
2023-05-21T03:11:24.795Z,0.00
2023-05-21T03:12:24.811Z,5.63
2023-05-21T03:13:24.829Z,5.63
2023-05-21T03:14:24.785Z,5.63
2023-05-21T03:15:24.819Z,5.63
2023-05-21T03:16:24.807Z,5.63
2023-05-21T03:17:24.842Z,5.63
2023-05-21T03:18:24.792Z,5.63
2023-05-21T03:19:24.887Z,5.63
2023-05-21T03:20:24.779Z,5.63
2023-05-21T03:21:24.797Z,5.63
2023-05-21T03:22:24.785Z,5.63
2023-05-21T03:23:24.798Z,5.63
2023-05-21T03:24:24.798Z,11.25
2023-05-21T03:25:24.773Z,11.25
2023-05-21T03:26:24.769Z,11.25
2023-05-21T03:27:24.772Z,11.25
2023-05-21T03:28:24.770Z,11.25
2023-05-21T03:29:24.764Z,11.25
2023-05-21T03:30:24.798Z,11.25
2023-05-21T03:31:24.835Z,11.25
2023-05-21T03:32:24.885Z,16.88
2023-05-21T03:33:24.765Z,16.88
2023-05-21T03:34:24.765Z,16.88
2023-05-21T03:35:24.759Z,16.88
2023-05-21T03:36:24.762Z,16.88
2023-05-21T03:37:24.758Z,16.88
2023-05-21T03:38:24.752Z,16.88
2023-05-21T03:39:24.764Z,16.88
2023-05-21T03:40:24.743Z,22.50
2023-05-21T03:41:24.743Z,22.50
2023-05-21T03:42:24.736Z,22.50
2023-05-21T03:43:24.745Z,22.50
2023-05-21T03:44:24.738Z,22.50
2023-05-21T03:45:24.752Z,22.50
2023-05-21T03:46:24.772Z,22.50
2023-05-21T03:47:24.789Z,28.13
2023-05-21T03:48:24.745Z,28.13
2023-05-21T03:49:24.780Z,28.13
2023-05-21T03:50:24.729Z,28.13
2023-05-21T03:51:24.750Z,28.13
2023-05-21T03:52:24.841Z,28.13
2023-05-21T03:53:24.746Z,28.13
2023-05-21T03:54:24.723Z,33.75
2023-05-21T03:55:24.718Z,33.75
2023-05-21T03:56:24.737Z,33.75
2023-05-21T03:57:24.732Z,33.75
2023-05-21T03:58:24.718Z,33.75
2023-05-21T03:59:24.714Z,39.38
2023-05-21T04:00:24.751Z,39.38
2023-05-21T04:01:24.710Z,39.38
2023-05-21T04:02:24.887Z,39.38
2023-05-21T04:03:24.943Z,45.00
2023-05-21T04:04:24.740Z,45.00
2023-05-21T04:05:24.709Z,45.00
2023-05-21T04:06:24.713Z,50.63
2023-05-21T04:07:24.699Z,50.63
2023-05-21T04:08:24.701Z,50.63
2023-05-21T04:09:24.704Z,56.25
2023-05-21T04:10:24.716Z,56.25
2023-05-21T04:11:24.700Z,56.25
2023-05-21T04:12:24.698Z,61.88
2023-05-21T04:13:24.692Z,61.88
2023-05-21T04:14:24.703Z,61.88
2023-05-21T04:15:24.724Z,61.88
2023-05-21T04:16:24.745Z,67.50
2023-05-21T04:17:24.688Z,67.50
2023-05-21T04:18:24.703Z,67.50
2023-05-21T04:19:24.787Z,67.50
2023-05-21T04:20:24.677Z,67.50
2023-05-21T04:21:24.671Z,67.50
2023-05-21T04:22:24.692Z,67.50
2023-05-21T04:23:24.681Z,73.13
2023-05-21T04:24:24.689Z,73.13
2023-05-21T04:25:24.706Z,73.13
2023-05-21T04:26:24.685Z,78.75
2023-05-21T04:27:24.681Z,78.75
2023-05-21T04:28:24.665Z,78.75
2023-05-21T04:29:24.671Z,84.38
2023-05-21T04:30:24.704Z,84.38
2023-05-21T04:31:24.681Z,84.38
2023-05-21T04:32:24.681Z,90.00
2023-05-21T04:33:24.670Z,90.00
2023-05-21T04:34:24.650Z,90.00
2023-05-21T04:35:24.658Z,95.63
2023-05-21T04:36:24.654Z,95.63
2023-05-21T04:37:24.744Z,101.25
2023-05-21T04:38:24.656Z,101.25
2023-05-21T04:39:24.646Z,106.88
2023-05-21T04:40:24.673Z,106.88
2023-05-21T04:41:24.659Z,112.50
2023-05-21T04:42:24.646Z,112.50
2023-05-21T04:43:24.642Z,118.13
2023-05-21T04:44:24.643Z,118.13
2023-05-21T04:45:24.682Z,118.13
2023-05-21T04:46:24.659Z,118.13
2023-05-21T04:47:24.674Z,123.75
2023-05-21T04:48:24.849Z,123.75
2023-05-21T04:49:24.644Z,129.38
2023-05-21T04:50:24.652Z,129.38
2023-05-21T04:51:24.809Z,129.38
2023-05-21T04:52:24.628Z,129.38
2023-05-21T04:53:24.649Z,135.00
2023-05-21T04:54:24.668Z,135.00
2023-05-21T04:55:24.636Z,135.00
2023-05-21T04:56:24.639Z,135.00
2023-05-21T04:57:24.665Z,135.00
2023-05-21T04:58:24.631Z,140.63
2023-05-21T04:59:24.621Z,140.63
2023-05-21T05:00:24.630Z,140.63
2023-05-21T05:01:24.669Z,140.63
2023-05-21T05:02:24.647Z,140.63
2023-05-21T05:03:24.693Z,140.63
2023-05-21T05:04:24.635Z,140.63
2023-05-21T05:05:24.637Z,146.25
2023-05-21T05:06:24.625Z,146.25
2023-05-21T05:07:24.634Z,146.25
2023-05-21T05:08:24.659Z,151.88
2023-05-21T05:09:24.622Z,151.88
2023-05-21T05:10:24.626Z,151.88
2023-05-21T05:11:24.624Z,151.88
2023-05-21T05:12:24.613Z,151.88
2023-05-21T05:13:24.613Z,157.50
2023-05-21T05:14:24.623Z,157.50
2023-05-21T05:16:37.445Z,163.13
2023-05-21T05:17:37.428Z,163.13
2023-05-21T05:19:41.390Z,168.75
2023-05-21T05:20:41.386Z,168.75
2023-05-21T05:22:45.422Z,168.75
2023-05-21T05:23:45.447Z,168.75
2023-05-21T05:24:45.392Z,174.38
2023-05-21T05:25:45.395Z,180.00
2023-05-21T05:26:45.412Z,196.88
2023-05-21T05:27:45.421Z,225.00
2023-05-21T05:28:45.395Z,303.75
2023-05-21T05:29:45.394Z,343.13
2023-05-21T05:30:45.441Z,360.00
2023-05-21T05:31:45.399Z,376.88
2023-05-21T05:32:45.429Z,444.38
2023-05-21T05:33:45.398Z,399.38
2023-05-21T05:34:45.387Z,365.63
2023-05-21T05:35:45.440Z,410.63
2023-05-21T05:36:45.399Z,405.00
2023-05-21T05:37:45.390Z,399.38
2023-05-21T05:38:45.418Z,371.25
2023-05-21T05:39:45.397Z,376.88
2023-05-21T05:40:45.390Z,399.38
2023-05-21T05:41:45.398Z,371.25
2023-05-21T05:42:45.411Z,292.50
2023-05-21T05:43:45.400Z,264.38
2023-05-21T05:44:45.399Z,286.88
2023-05-21T05:45:45.404Z,303.75
2023-05-21T05:46:45.500Z,320.63
2023-05-21T05:47:45.483Z,388.13
2023-05-21T05:48:45.414Z,399.38
2023-05-21T05:49:45.421Z,337.50
2023-05-21T05:50:45.420Z,292.50
2023-05-21T05:51:45.414Z,281.25
2023-05-21T05:52:45.425Z,275.63
2023-05-21T05:53:45.423Z,270.00
2023-05-21T05:54:45.426Z,281.25
2023-05-21T05:55:45.432Z,270.00
2023-05-21T05:56:45.430Z,315.00
2023-05-21T05:57:45.460Z,360.00
2023-05-21T05:58:45.421Z,343.13
2023-05-21T05:59:45.463Z,315.00
2023-05-21T06:00:45.433Z,320.63
2023-05-21T06:01:45.437Z,309.38
2023-05-21T06:02:45.503Z,247.50
2023-05-21T06:03:45.629Z,236.25
2023-05-21T06:04:45.465Z,225.00
2023-05-21T06:05:45.533Z,230.63
2023-05-21T06:06:45.441Z,230.63
2023-05-21T06:07:45.461Z,208.13
2023-05-21T06:08:45.446Z,168.75
2023-05-21T06:09:45.453Z,157.50
2023-05-21T06:10:45.449Z,140.63
2023-05-21T06:11:45.452Z,146.25
2023-05-21T06:12:45.448Z,157.50
2023-05-21T06:13:45.460Z,168.75
2023-05-21T06:14:45.449Z,180.00
2023-05-21T06:15:45.500Z,163.13
2023-05-21T06:16:45.467Z,151.88
2023-05-21T06:17:45.496Z,135.00
2023-05-21T06:18:45.496Z,123.75
2023-05-21T06:19:45.457Z,123.75
2023-05-21T06:20:45.459Z,123.75
2023-05-21T06:21:45.501Z,123.75
2023-05-21T06:22:45.466Z,123.75
2023-05-21T06:23:45.466Z,129.38
2023-05-21T06:24:45.479Z,140.63
2023-05-21T06:25:45.480Z,140.63
2023-05-21T06:26:45.477Z,140.63
2023-05-21T06:27:45.505Z,151.88
2023-05-21T06:28:45.483Z,157.50
2023-05-21T06:29:45.488Z,163.13
2023-05-21T06:30:45.471Z,151.88
2023-05-21T06:31:45.474Z,146.25
2023-05-21T06:32:45.533Z,146.25
2023-05-21T06:33:45.577Z,140.63
2023-05-21T06:34:45.488Z,135.00
2023-05-21T06:35:45.487Z,140.63
2023-05-21T06:36:45.515Z,140.63
2023-05-21T06:37:45.493Z,146.25
2023-05-21T06:38:45.481Z,151.88
2023-05-21T06:39:45.491Z,151.88
2023-05-21T06:40:45.538Z,168.75
2023-05-21T06:41:45.501Z,185.63
2023-05-21T06:42:45.509Z,202.50
2023-05-21T06:43:45.517Z,230.63
2023-05-21T06:44:45.508Z,270.00
2023-05-21T06:45:45.532Z,286.88
2023-05-21T06:46:45.496Z,326.25
2023-05-21T06:47:45.549Z,354.38
2023-05-21T06:48:45.506Z,365.63
2023-05-21T06:49:45.505Z,421.88
2023-05-21T06:50:45.496Z,444.38
2023-05-21T06:51:45.503Z,450.00
2023-05-21T06:52:45.502Z,472.50
2023-05-21T06:53:45.516Z,427.50
2023-05-21T06:54:45.532Z,461.25
2023-05-21T06:55:45.515Z,590.63
2023-05-21T06:56:45.507Z,686.25
2023-05-21T06:57:45.520Z,894.38
2023-05-21T06:58:45.547Z,843.75
2023-05-21T06:59:45.566Z,894.38
2023-05-21T07:00:45.520Z,1125.00
2023-05-21T07:01:45.596Z,1271.25
2023-05-21T07:02:45.583Z,1282.50
2023-05-21T07:03:45.568Z,1350.00
2023-05-21T07:04:45.543Z,1338.75
2023-05-21T07:05:45.551Z,1282.50
2023-05-21T07:06:45.572Z,1350.00
2023-05-21T07:07:45.572Z,1327.50
2023-05-21T07:08:45.560Z,1333.13
2023-05-21T07:09:45.569Z,1288.13
2023-05-21T07:10:45.591Z,1158.75
2023-05-21T07:11:45.579Z,1018.13
2023-05-21T07:12:45.678Z,995.63
2023-05-21T07:13:45.595Z,984.38
2023-05-21T07:14:45.606Z,922.50
2023-05-21T07:15:45.605Z,877.50
2023-05-21T07:16:45.673Z,838.13
2023-05-21T07:17:45.692Z,821.25
2023-05-21T07:18:45.691Z,787.50
2023-05-21T07:19:45.654Z,759.38
2023-05-21T07:20:45.660Z,742.50
2023-05-21T07:21:45.669Z,736.88
2023-05-21T07:22:45.679Z,736.88
2023-05-21T07:23:45.718Z,742.50
2023-05-21T07:24:45.701Z,714.38
2023-05-21T07:25:45.711Z,691.88
2023-05-21T07:26:45.726Z,697.50
2023-05-21T07:27:45.739Z,703.13
2023-05-21T07:28:45.788Z,697.50
2023-05-21T07:29:45.766Z,686.25
2023-05-21T07:30:45.844Z,680.63
2023-05-21T07:31:45.778Z,680.63
2023-05-21T07:32:45.832Z,675.00
2023-05-21T07:33:45.813Z,669.38
2023-05-21T07:34:45.857Z,658.13
2023-05-21T07:35:45.843Z,652.50
2023-05-21T07:36:45.852Z,652.50
2023-05-21T07:37:45.897Z,652.50
2023-05-21T07:38:45.950Z,652.50
2023-05-21T07:39:45.884Z,624.38
2023-05-21T07:40:45.912Z,630.00
2023-05-21T07:41:45.924Z,630.00
2023-05-21T07:42:45.929Z,630.00
2023-05-21T07:43:45.953Z,613.13
2023-05-21T07:44:45.960Z,607.50
2023-05-21T07:45:45.997Z,607.50
2023-05-21T07:46:46.032Z,607.50
2023-05-21T07:47:46.030Z,596.25
2023-05-21T07:48:46.016Z,601.88
2023-05-21T07:49:46.020Z,590.63
2023-05-21T07:50:46.032Z,579.38
2023-05-21T07:51:46.044Z,579.38
2023-05-21T07:52:46.109Z,573.75
2023-05-21T07:53:46.076Z,545.63
2023-05-21T07:54:46.086Z,528.75
2023-05-21T07:55:46.095Z,495.00
2023-05-21T07:56:46.122Z,444.38
2023-05-21T07:57:46.123Z,427.50
2023-05-21T07:58:46.150Z,416.25
2023-05-21T07:59:46.169Z,405.00
2023-05-21T08:00:46.960Z,405.00
2023-05-21T08:01:46.183Z,399.38
2023-05-21T08:02:46.282Z,393.75
2023-05-21T08:03:46.290Z,382.50
2023-05-21T08:04:46.267Z,376.88
2023-05-21T08:05:46.243Z,365.63
2023-05-21T08:06:46.244Z,376.88
2023-05-21T08:07:46.256Z,376.88
2023-05-21T08:08:46.283Z,365.63
2023-05-21T08:09:46.281Z,354.38
2023-05-21T08:10:46.291Z,354.38
2023-05-21T08:11:46.306Z,348.75
2023-05-21T08:12:46.322Z,348.75
2023-05-21T08:13:46.345Z,343.13
2023-05-21T08:14:46.332Z,331.88
2023-05-21T08:15:46.346Z,326.25
2023-05-21T08:16:46.458Z,320.63
2023-05-21T08:17:46.417Z,315.00
2023-05-21T08:18:46.392Z,309.38
2023-05-21T08:19:46.398Z,303.75
2023-05-21T08:20:46.422Z,298.13
2023-05-21T08:21:46.424Z,298.13
2023-05-21T08:22:46.419Z,298.13
2023-05-21T08:23:46.415Z,292.50
2023-05-21T08:24:46.559Z,292.50
2023-05-21T08:25:46.437Z,292.50
2023-05-21T08:26:46.443Z,286.88
2023-05-21T08:27:46.455Z,286.88
2023-05-21T08:28:46.471Z,286.88
2023-05-21T08:29:46.488Z,286.88
2023-05-21T08:30:46.494Z,286.88
2023-05-21T08:31:46.518Z,292.50
2023-05-21T08:32:46.532Z,286.88
2023-05-21T08:33:46.507Z,286.88
2023-05-21T08:34:46.554Z,286.88
2023-05-21T08:35:46.532Z,281.25
2023-05-21T08:36:46.533Z,281.25
2023-05-21T08:37:46.557Z,281.25
2023-05-21T08:38:46.561Z,275.63
2023-05-21T08:39:46.590Z,275.63
2023-05-21T08:40:46.591Z,275.63
2023-05-21T08:41:46.587Z,275.63
2023-05-21T08:42:46.587Z,270.00
2023-05-21T08:43:48.577Z,270.00
2023-05-21T08:44:47.483Z,264.38
2023-05-21T08:45:46.651Z,258.75
2023-05-21T08:46:46.594Z,253.13
2023-05-21T08:47:46.653Z,253.13
2023-05-21T08:48:46.638Z,247.50
2023-05-21T08:49:46.664Z,247.50
2023-05-21T08:50:46.639Z,247.50
2023-05-21T08:51:46.632Z,247.50
2023-05-21T08:52:46.637Z,241.88
2023-05-21T08:53:46.659Z,230.63
2023-05-21T08:54:46.642Z,230.63
2023-05-21T08:55:46.680Z,230.63
2023-05-21T08:56:46.674Z,230.63
2023-05-21T08:57:46.672Z,230.63
2023-05-21T08:58:46.688Z,230.63
2023-05-21T08:59:46.679Z,225.00
2023-05-21T09:00:46.711Z,230.63
2023-05-21T09:01:46.733Z,230.63
2023-05-21T09:02:46.814Z,219.38
2023-05-21T09:03:46.821Z,202.50
2023-05-21T09:04:46.757Z,202.50
2023-05-21T09:05:46.711Z,202.50
2023-05-21T09:06:46.736Z,208.13
2023-05-21T09:07:46.712Z,225.00
2023-05-21T09:08:46.718Z,225.00
2023-05-21T09:09:46.720Z,230.63
2023-05-21T09:10:46.731Z,225.00
2023-05-21T09:11:46.737Z,230.63
2023-05-21T09:12:46.742Z,225.00
2023-05-21T09:13:46.751Z,225.00
2023-05-21T09:14:46.754Z,230.63
2023-05-21T09:15:46.750Z,225.00
2023-05-21T09:16:46.801Z,225.00
2023-05-21T09:17:46.831Z,225.00
2023-05-21T09:18:46.809Z,219.38
2023-05-21T09:19:46.773Z,213.75
2023-05-21T09:20:46.783Z,219.38
2023-05-21T09:21:46.796Z,208.13
2023-05-21T09:22:46.804Z,208.13
2023-05-21T09:23:46.795Z,196.88
2023-05-21T09:24:46.806Z,196.88
2023-05-21T09:25:46.808Z,196.88
2023-05-21T09:26:46.819Z,202.50
2023-05-21T09:27:46.817Z,202.50
2023-05-21T09:28:46.840Z,202.50
2023-05-21T09:29:46.841Z,202.50
2023-05-21T09:30:46.849Z,196.88
2023-05-21T09:31:47.066Z,191.25
2023-05-21T09:32:46.902Z,191.25
2023-05-21T09:33:46.848Z,191.25
2023-05-21T09:34:46.860Z,191.25
2023-05-21T09:35:46.862Z,185.63
2023-05-21T09:36:46.872Z,185.63
2023-05-21T09:37:46.889Z,185.63
2023-05-21T09:38:46.888Z,180.00
2023-05-21T09:39:46.878Z,185.63
2023-05-21T09:40:46.893Z,185.63
2023-05-21T09:41:46.885Z,185.63
2023-05-21T09:42:46.899Z,185.63
2023-05-21T09:43:46.909Z,191.25
2023-05-21T09:44:46.909Z,191.25
2023-05-21T09:45:46.917Z,196.88
2023-05-21T09:46:46.930Z,196.88
2023-05-21T09:47:46.985Z,196.88
2023-05-21T09:48:46.941Z,191.25
2023-05-21T09:49:46.975Z,191.25
2023-05-21T09:50:46.937Z,185.63
2023-05-21T09:51:46.935Z,180.00
2023-05-21T09:52:46.958Z,180.00
2023-05-21T09:53:46.959Z,180.00
2023-05-21T09:54:46.955Z,168.75
2023-05-21T09:55:46.971Z,163.13
2023-05-21T09:56:46.974Z,163.13
2023-05-21T09:57:49.137Z,157.50
2023-05-21T09:58:46.977Z,157.50
2023-05-21T09:59:47.011Z,163.13
2023-05-21T10:00:47.015Z,163.13
2023-05-21T10:01:47.040Z,163.13
2023-05-21T10:02:47.090Z,163.13
2023-05-21T10:03:49.265Z,163.13
2023-05-21T10:04:47.113Z,163.13
2023-05-21T10:05:47.012Z,163.13
2023-05-21T10:06:47.012Z,168.75
2023-05-21T10:07:47.011Z,174.38
2023-05-21T10:08:47.027Z,163.13
2023-05-21T10:09:47.025Z,168.75
2023-05-21T10:10:47.039Z,168.75
2023-05-21T10:11:47.087Z,163.13
2023-05-21T10:12:52.449Z,168.75
2023-05-21T10:13:47.055Z,168.75
2023-05-21T10:14:47.058Z,163.13
2023-05-21T10:15:48.285Z,163.13
2023-05-21T10:16:49.494Z,168.75
2023-05-21T10:17:47.116Z,168.75
2023-05-21T10:18:47.118Z,163.13
2023-05-21T10:19:47.092Z,163.13
2023-05-21T10:20:47.083Z,163.13
2023-05-21T10:21:47.101Z,163.13
2023-05-21T10:22:47.111Z,163.13
2023-05-21T10:23:47.099Z,163.13
2023-05-21T10:24:47.116Z,168.75
2023-05-21T10:25:47.114Z,168.75
2023-05-21T10:26:47.125Z,163.13
2023-05-21T10:27:47.122Z,163.13
2023-05-21T10:28:47.120Z,168.75
2023-05-21T10:29:47.180Z,163.13
2023-05-21T10:30:47.153Z,163.13
2023-05-21T10:31:47.214Z,163.13
2023-05-21T10:32:47.372Z,163.13
2023-05-21T10:33:47.150Z,163.13
2023-05-21T10:34:47.161Z,157.50
2023-05-21T10:35:47.154Z,157.50
2023-05-21T10:36:47.167Z,157.50
2023-05-21T10:37:47.177Z,157.50
2023-05-21T10:38:47.172Z,157.50
2023-05-21T10:39:47.173Z,157.50
2023-05-21T10:40:47.188Z,151.88
2023-05-21T10:41:47.197Z,146.25
2023-05-21T10:42:47.192Z,140.63
2023-05-21T10:43:47.201Z,135.00
2023-05-21T10:44:47.334Z,135.00
2023-05-21T10:45:47.219Z,135.00
2023-05-21T10:46:47.226Z,129.38
2023-05-21T10:47:47.252Z,129.38
2023-05-21T10:48:47.256Z,129.38
2023-05-21T10:49:47.252Z,129.38
2023-05-21T10:50:47.254Z,129.38
2023-05-21T10:51:47.232Z,129.38
2023-05-21T10:52:47.254Z,135.00
2023-05-21T10:53:47.258Z,135.00
2023-05-21T10:54:47.273Z,135.00
2023-05-21T10:55:47.258Z,129.38
2023-05-21T10:56:47.278Z,129.38
2023-05-21T10:57:47.278Z,123.75
2023-05-21T10:58:47.276Z,118.13
2023-05-21T10:59:47.272Z,118.13
2023-05-21T11:00:47.348Z,112.50
2023-05-21T11:01:47.305Z,112.50
2023-05-21T11:02:47.320Z,106.88
2023-05-21T11:03:47.308Z,106.88
2023-05-21T11:04:47.316Z,106.88
2023-05-21T11:05:47.306Z,112.50
2023-05-21T11:06:47.312Z,112.50
2023-05-21T11:07:47.312Z,112.50
2023-05-21T11:08:47.369Z,106.88
2023-05-21T11:09:47.350Z,101.25
2023-05-21T11:10:47.417Z,101.25
2023-05-21T11:11:47.343Z,106.88
2023-05-21T11:12:47.350Z,106.88
2023-05-21T11:13:47.408Z,106.88
2023-05-21T11:14:47.371Z,106.88
2023-05-21T11:15:47.364Z,112.50
2023-05-21T11:16:54.553Z,112.50
2023-05-21T11:18:51.411Z,112.50
2023-05-21T11:19:51.491Z,118.13
2023-05-21T11:21:55.388Z,123.75
2023-05-21T11:22:55.367Z,135.00
2023-05-21T11:24:59.450Z,140.63
2023-05-21T11:25:59.386Z,129.38
2023-05-21T11:27:52.316Z,135.00
2023-05-21T11:28:52.309Z,140.63
2023-05-21T11:30:57.000Z,146.25
2023-05-21T11:31:56.758Z,151.88
2023-05-21T11:34:00.575Z,151.88
2023-05-21T11:35:00.648Z,157.50
2023-05-21T11:37:04.617Z,157.50
2023-05-21T11:38:04.607Z,163.13
2023-05-21T11:40:08.739Z,163.13
2023-05-21T11:41:08.598Z,163.13
2023-05-21T11:43:12.620Z,168.75
2023-05-21T11:44:12.631Z,168.75
2023-05-21T11:46:16.649Z,168.75
2023-05-21T11:47:16.623Z,168.75
2023-05-21T11:49:20.656Z,168.75
2023-05-21T11:50:20.783Z,168.75
2023-05-21T11:52:24.684Z,168.75
2023-05-21T11:53:24.655Z,168.75
2023-05-21T11:55:28.709Z,168.75
2023-05-21T11:56:28.664Z,168.75
2023-05-21T11:58:32.702Z,168.75
2023-05-21T11:59:32.679Z,163.13
2023-05-21T12:01:36.728Z,151.88
2023-05-21T12:02:36.772Z,151.88
2023-05-21T12:04:40.738Z,146.25
2023-05-21T12:05:40.746Z,146.25
2023-05-21T12:07:33.692Z,146.25
2023-05-21T12:08:33.652Z,140.63
2023-05-21T12:10:37.913Z,140.63
2023-05-21T12:11:37.662Z,140.63
2023-05-21T12:13:41.708Z,140.63
2023-05-21T12:14:41.656Z,135.00
2023-05-21T12:16:45.755Z,135.00
2023-05-21T12:17:45.780Z,129.38
2023-05-21T12:19:49.721Z,129.38
2023-05-21T12:20:49.726Z,129.38
2023-05-21T12:22:53.756Z,129.38
2023-05-21T12:23:53.752Z,123.75
2023-05-21T12:25:57.795Z,123.75
2023-05-21T12:26:57.752Z,123.75
2023-05-21T12:29:01.783Z,123.75
2023-05-21T12:30:01.758Z,123.75
2023-05-21T12:32:06.386Z,123.75
2023-05-21T12:33:06.701Z,123.75
2023-05-21T12:35:09.987Z,123.75
2023-05-21T12:36:09.982Z,129.38
2023-05-21T12:38:02.970Z,135.00
2023-05-21T12:39:02.902Z,140.63
2023-05-21T12:41:06.912Z,140.63
2023-05-21T12:42:06.912Z,140.63
2023-05-21T12:44:10.941Z,140.63
2023-05-21T12:45:10.991Z,135.00
2023-05-21T12:47:14.952Z,135.00
2023-05-21T12:48:14.949Z,140.63
2023-05-21T12:50:18.959Z,140.63
2023-05-21T12:51:18.953Z,146.25
2023-05-21T12:53:23.008Z,123.75
2023-05-21T12:54:22.975Z,123.75
2023-05-21T12:55:22.977Z,123.75
2023-05-21T12:56:22.996Z,129.38
2023-05-21T12:57:23.058Z,140.63
2023-05-21T12:58:22.995Z,140.63
2023-05-21T12:59:22.999Z,146.25
2023-05-21T13:00:23.000Z,146.25
2023-05-21T13:01:23.028Z,135.00
2023-05-21T13:02:23.016Z,135.00
2023-05-21T13:03:23.014Z,140.63
2023-05-21T13:04:23.060Z,135.00
2023-05-21T13:05:23.023Z,135.00
2023-05-21T13:06:23.137Z,135.00
2023-05-21T13:07:23.054Z,140.63
2023-05-21T13:08:23.043Z,140.63
2023-05-21T13:09:23.051Z,151.88
2023-05-21T13:10:23.064Z,151.88
2023-05-21T13:11:23.051Z,151.88
2023-05-21T13:12:23.057Z,151.88
2023-05-21T13:13:23.070Z,146.25
2023-05-21T13:14:23.064Z,135.00
2023-05-21T13:15:23.082Z,135.00
2023-05-21T13:16:23.142Z,129.38
2023-05-21T13:17:23.128Z,140.63
2023-05-21T13:18:23.188Z,135.00
2023-05-21T13:19:23.288Z,129.38
2023-05-21T13:20:23.102Z,135.00